createdAt,value
2018-09-25T00:00:25.165Z,87.74
2018-09-25T00:01:35.265Z,87.59
2018-09-25T00:02:45.369Z,87.64
2018-09-25T00:03:55.460Z,87.74
2018-09-25T00:05:05.655Z,87.74
2018-09-25T00:06:15.714Z,87.74
2018-09-25T00:07:25.582Z,87.54
2018-09-25T00:08:35.677Z,87.64
2018-09-25T00:09:45.748Z,87.64
2018-09-25T00:10:55.573Z,87.64
2018-09-25T00:12:05.645Z,87.45
2018-09-25T00:13:15.721Z,87.74
2018-09-25T00:14:25.798Z,87.64
2018-09-25T00:15:35.859Z,87.54
2018-09-25T00:16:45.977Z,87.64
2018-09-25T00:17:56.077Z,87.64
2018-09-25T00:19:05.945Z,87.45
2018-09-25T00:20:16.033Z,87.64
2018-09-25T00:21:26.106Z,87.45
2018-09-25T00:22:36.182Z,87.64
2018-09-25T00:23:45.988Z,87.64
2018-09-25T00:24:56.113Z,87.74
2018-09-25T00:26:05.655Z,87.64
2018-09-25T00:27:15.477Z,87.64
2018-09-25T00:28:25.011Z,87.64
2018-09-25T00:29:34.807Z,87.54
2018-09-25T00:30:44.895Z,87.54
2018-09-25T00:31:54.986Z,87.45
2018-09-25T00:33:05.077Z,87.74
2018-09-25T00:34:15.151Z,87.74
2018-09-25T00:35:25.228Z,87.74
2018-09-25T00:36:35.305Z,87.54
2018-09-25T00:37:45.370Z,87.74
2018-09-25T00:38:55.502Z,87.45
2018-09-25T00:40:08.668Z,87.64
2018-09-25T00:41:18.486Z,87.64
2018-09-25T00:42:28.614Z,87.54
2018-09-25T00:43:38.667Z,87.54
2018-09-25T00:44:48.735Z,87.64
2018-09-25T00:45:58.807Z,87.64
2018-09-25T00:47:09.047Z,87.64
2018-09-25T00:48:19.405Z,87.54
2018-09-25T00:49:29.215Z,87.74
2018-09-25T00:50:39.330Z,87.74
2018-09-25T00:51:49.238Z,87.64
2018-09-25T00:52:59.328Z,87.54
2018-09-25T00:54:09.449Z,87.74
2018-09-25T00:55:19.248Z,87.54
2018-09-25T00:56:29.313Z,87.64
2018-09-25T00:57:39.368Z,87.64
2018-09-25T00:58:49.435Z,87.83
2018-09-25T00:59:59.593Z,87.64
2018-09-25T01:01:11.325Z,87.54
2018-09-25T01:02:21.405Z,87.54
2018-09-25T01:03:31.481Z,87.54
2018-09-25T01:04:41.553Z,87.74
2018-09-25T01:05:51.616Z,87.54
2018-09-25T01:07:01.752Z,87.54
2018-09-25T01:08:11.803Z,87.74
2018-09-25T01:09:21.920Z,87.74
2018-09-25T01:10:31.988Z,87.64
2018-09-25T01:11:42.081Z,87.45
2018-09-25T01:12:52.185Z,87.93
2018-09-25T01:14:02.247Z,87.5
2018-09-25T01:15:12.317Z,87.5
2018-09-25T01:16:22.115Z,87.6
2018-09-25T01:17:32.175Z,87.6
2018-09-25T01:18:41.994Z,87.5
2018-09-25T01:19:52.051Z,87.6
2018-09-25T01:21:02.136Z,87.69
2018-09-25T01:22:12.244Z,87.6
2018-09-25T01:23:22.356Z,87.88
2018-09-25T01:24:32.414Z,87.6
2018-09-25T01:25:41.964Z,87.5
2018-09-25T01:26:52.086Z,87.6
2018-09-25T01:28:02.181Z,87.69
2018-09-25T01:29:12.318Z,87.6
2018-09-25T01:30:22.156Z,87.4
2018-09-25T01:31:31.957Z,87.69
2018-09-25T01:32:42.048Z,87.4
2018-09-25T01:33:51.860Z,87.88
2018-09-25T01:35:01.761Z,87.6
2018-09-25T01:36:11.828Z,87.5
2018-09-25T01:37:21.957Z,87.5
2018-09-25T01:38:32.012Z,87.69
2018-09-25T01:39:42.057Z,87.5
2018-09-25T01:40:52.187Z,87.6
2018-09-25T01:42:02.238Z,87.6
2018-09-25T01:43:12.302Z,87.6
2018-09-25T01:44:22.402Z,87.6
2018-09-25T01:45:32.469Z,87.6
2018-09-25T01:46:42.537Z,87.5
2018-09-25T01:47:52.605Z,87.88
2018-09-25T01:49:05.242Z,87.4
2018-09-25T01:50:15.068Z,87.88
2018-09-25T01:51:25.161Z,87.5
2018-09-25T01:52:35.255Z,87.6
2018-09-25T01:53:45.347Z,87.4
2018-09-25T01:54:55.413Z,87.4
2018-09-25T01:56:06.688Z,87.6
2018-09-25T01:57:17.087Z,87.6
2018-09-25T01:58:30.236Z,87.6
2018-09-25T01:59:43.497Z,87.5
2018-09-25T02:00:53.040Z,87.6
2018-09-25T02:02:03.218Z,87.79
2018-09-25T02:03:13.031Z,87.4
2018-09-25T02:04:22.572Z,87.79
2018-09-25T02:05:32.366Z,87.6
2018-09-25T02:06:42.543Z,87.6
2018-09-25T02:07:52.603Z,87.5
2018-09-25T02:09:02.678Z,87.5
2018-09-25T02:10:12.537Z,87.5
2018-09-25T02:11:22.603Z,87.79
2018-09-25T02:12:32.676Z,87.21
2018-09-25T02:13:42.737Z,87.79
2018-09-25T02:14:52.808Z,87.6
2018-09-25T02:16:02.879Z,87.69
2018-09-25T02:17:12.992Z,87.69
2018-09-25T02:18:23.054Z,87.4
2018-09-25T02:19:33.127Z,87.46
2018-09-25T02:20:43.191Z,87.6
2018-09-25T02:21:53.280Z,87.6
2018-09-25T02:23:04.203Z,87.36
2018-09-25T02:24:14.290Z,87.6
2018-09-25T02:25:24.107Z,87.5
2018-09-25T02:26:33.907Z,87.6
2018-09-25T02:27:43.975Z,87.69
2018-09-25T02:28:53.246Z,87.69
2018-09-25T02:30:05.719Z,87.55
2018-09-25T02:31:15.802Z,87.4
2018-09-25T02:32:25.884Z,87.4
2018-09-25T02:33:35.698Z,87.65
2018-09-25T02:34:45.765Z,87.5
2018-09-25T02:35:55.915Z,87.5
2018-09-25T02:37:05.984Z,87.65
2018-09-25T02:38:16.173Z,87.84
2018-09-25T02:39:26.249Z,87.36
2018-09-25T02:40:36.313Z,87.36
2018-09-25T02:41:46.379Z,87.65
2018-09-25T02:42:56.426Z,87.55
2018-09-25T02:44:06.263Z,87.46
2018-09-25T02:45:16.389Z,87.46
2018-09-25T02:46:26.213Z,87.55
2018-09-25T02:47:36.289Z,87.55
2018-09-25T02:48:46.336Z,87.36
2018-09-25T02:49:56.423Z,87.6
2018-09-25T02:51:06.528Z,87.55
2018-09-25T02:52:16.606Z,87.46
2018-09-25T02:53:26.433Z,87.84
2018-09-25T02:54:36.500Z,87.46
2018-09-25T02:55:46.566Z,87.55
2018-09-25T02:56:56.364Z,87.55
2018-09-25T02:58:06.834Z,87.36
2018-09-25T02:59:16.932Z,87.46
2018-09-25T03:00:27.003Z,87.46
2018-09-25T03:01:36.798Z,87.55
2018-09-25T03:34:06.396Z,81.52
2018-09-25T03:35:16.462Z,82.19
2018-09-25T03:36:26.512Z,82.71
2018-09-25T03:37:36.062Z,83.33
2018-09-25T03:38:46.157Z,84
2018-09-25T03:39:56.247Z,84.95
2018-09-25T03:41:06.333Z,85.14
2018-09-25T03:42:16.408Z,85.8
2018-09-25T03:43:26.495Z,85.99
2018-09-25T03:44:36.567Z,86.18
2018-09-25T03:45:46.641Z,86.57
2018-09-25T03:46:56.720Z,86.76
2018-09-25T03:48:08.304Z,86.57
2018-09-25T03:49:18.405Z,86.61
2018-09-25T03:50:28.228Z,86.8
2018-09-25T03:51:38.038Z,87.18
2018-09-25T03:52:48.085Z,86.99
2018-09-25T03:53:58.152Z,86.9
2018-09-25T03:55:09.099Z,87.08
2018-09-25T03:56:19.226Z,87.27
2018-09-25T03:57:29.302Z,86.94
2018-09-25T03:58:39.363Z,87.23
2018-09-25T03:59:49.183Z,87.13
2018-09-25T04:00:59.288Z,87.51
2018-09-25T04:02:09.410Z,87.51
2018-09-25T04:03:19.486Z,87.51
2018-09-25T04:04:29.287Z,87.41
2018-09-25T04:05:39.075Z,87.51
2018-09-25T04:06:49.186Z,87.51
2018-09-25T04:07:58.987Z,87.51
2018-09-25T04:09:10.173Z,87.41
2018-09-25T04:10:20.253Z,87.32
2018-09-25T04:11:30.319Z,87.32
2018-09-25T04:12:40.411Z,87.41
2018-09-25T04:13:50.486Z,87.41
2018-09-25T04:15:00.032Z,87.41
2018-09-25T04:16:10.738Z,87.32
2018-09-25T04:17:20.810Z,87.41
2018-09-25T04:18:30.638Z,87.51
2018-09-25T04:19:40.756Z,87.51
2018-09-25T04:20:50.820Z,87.51
2018-09-25T04:22:00.887Z,87.51
2018-09-25T04:23:10.970Z,87.32
2018-09-25T04:24:21.061Z,87.32
2018-09-25T04:25:31.140Z,87.41
2018-09-25T04:26:41.988Z,87.41
2018-09-25T04:27:51.779Z,87.79
2018-09-25T04:29:01.619Z,87.51
2018-09-25T04:30:11.690Z,87.41
2018-09-25T04:31:21.808Z,87.51
2018-09-25T04:32:31.885Z,87.51
2018-09-25T04:33:41.951Z,87.7
2018-09-25T04:34:51.819Z,87.13
2018-09-25T04:36:01.624Z,87.13
2018-09-25T04:37:11.898Z,86.94
2018-09-25T04:38:21.978Z,87.32
2018-09-25T04:39:31.794Z,87.32
2018-09-25T04:40:41.859Z,87.13
2018-09-25T04:41:51.944Z,87.13
2018-09-25T04:43:02.489Z,87.13
2018-09-25T04:44:12.107Z,87.13
2018-09-25T04:45:21.905Z,87.13
2018-09-25T04:46:31.445Z,87.13
2018-09-25T04:47:41.321Z,87.7
2018-09-25T04:48:51.213Z,87.32
2018-09-25T04:50:03.270Z,87.03
2018-09-25T04:51:13.100Z,87.6
2018-09-25T04:52:23.163Z,87.6
2018-09-25T04:53:33.340Z,86.75
2018-09-25T04:54:43.396Z,87.23
2018-09-25T04:55:53.475Z,86.84
2018-09-25T04:57:03.689Z,87.03
2018-09-25T04:58:14.194Z,86.84
2018-09-25T04:59:24.007Z,87.03
2018-09-25T05:00:34.070Z,86.65
2018-09-25T05:01:44.205Z,86.94
2018-09-25T05:02:54.270Z,87.23
2018-09-25T05:04:04.388Z,87.32
2018-09-25T05:05:14.477Z,87.32
2018-09-25T05:06:24.584Z,87.03
2018-09-25T05:07:34.726Z,86.84
2018-09-25T05:08:44.811Z,86.79
2018-09-25T05:09:54.975Z,86.98
2018-09-25T05:11:06.022Z,86.51
2018-09-25T05:12:16.027Z,86.69
2018-09-25T05:13:27.184Z,86.55
2018-09-25T05:14:37.061Z,86.69
2018-09-25T05:15:47.435Z,86.69
2018-09-25T05:16:56.986Z,86.98
2018-09-25T05:18:07.567Z,86.79
2018-09-25T05:19:17.970Z,87.07
2018-09-25T05:20:27.759Z,87.07
2018-09-25T05:21:37.833Z,86.79
2018-09-25T05:22:47.681Z,87.07
2018-09-25T05:23:57.765Z,86.6
2018-09-25T05:25:07.892Z,86.6
2018-09-25T05:26:17.792Z,86.51
2018-09-25T05:27:27.885Z,86.69
2018-09-25T05:28:38.006Z,86.51
2018-09-25T05:29:48.089Z,86.6
2018-09-25T05:30:58.249Z,86.69
2018-09-25T05:32:08.337Z,86.79
2018-09-25T05:33:18.424Z,86.79
2018-09-25T05:34:28.544Z,86.51
2018-09-25T05:35:38.684Z,86.6
2018-09-25T05:36:48.799Z,86.6
2018-09-25T05:37:58.874Z,86.74
2018-09-25T05:39:10.658Z,86.41
2018-09-25T05:40:20.519Z,86.36
2018-09-25T05:41:30.395Z,86.65
2018-09-25T05:42:39.693Z,86.45
2018-09-25T05:43:49.512Z,86.74
2018-09-25T05:44:59.585Z,86.65
2018-09-25T05:46:09.655Z,86.65
2018-09-25T05:47:19.444Z,86.45
2018-09-25T05:48:29.799Z,86.83
2018-09-25T05:49:40.650Z,86.45
2018-09-25T05:50:50.714Z,86.45
2018-09-25T05:52:00.798Z,86.55
2018-09-25T05:53:10.860Z,86.55
2018-09-25T05:54:20.716Z,86.55
2018-09-25T05:55:30.820Z,86.74
2018-09-25T05:56:40.938Z,86.36
2018-09-25T05:57:51.107Z,86.07
2018-09-25T05:59:03.182Z,86.07
2018-09-25T06:00:13.342Z,87.02
2018-09-25T06:01:23.428Z,86.93
2018-09-25T06:02:33.524Z,86.55
2018-09-25T06:03:43.638Z,86.74
2018-09-25T06:04:53.445Z,86.26
2018-09-25T06:06:04.867Z,86.49
2018-09-25T06:07:14.952Z,86.21
2018-09-25T06:08:25.086Z,86.4
2018-09-25T06:09:35.315Z,86.4
2018-09-25T06:10:45.748Z,86.4
2018-09-25T06:11:55.585Z,86.4
2018-09-25T06:13:05.401Z,86.59
2018-09-25T06:14:15.460Z,86.21
2018-09-25T06:15:25.306Z,86.21
2018-09-25T06:16:35.396Z,86.21
2018-09-25T06:17:44.996Z,86.3
2018-09-25T06:18:55.076Z,86.3
2018-09-25T06:20:04.872Z,86.21
2018-09-25T06:21:14.944Z,86.21
2018-09-25T06:22:25.108Z,86.4
2018-09-25T06:23:35.209Z,86.4
2018-09-25T06:24:44.747Z,86.4
2018-09-25T06:25:54.831Z,86.3
2018-09-25T06:27:04.682Z,86.49
2018-09-25T06:28:14.536Z,86.4
2018-09-25T06:29:24.621Z,86.21
2018-09-25T06:30:34.474Z,86.3
2018-09-25T06:31:44.546Z,86.54
2018-09-25T06:32:54.356Z,86.16
2018-09-25T06:34:04.413Z,85.97
2018-09-25T06:35:13.961Z,85.97
2018-09-25T06:36:23.812Z,86.54
2018-09-25T06:37:33.898Z,86.54
2018-09-25T06:38:44.006Z,85.77
2018-09-25T06:39:54.257Z,85.87
2018-09-25T06:41:04.644Z,85.68
2018-09-25T06:42:14.517Z,85.97
2018-09-25T06:43:24.584Z,86.54
2018-09-25T06:44:34.656Z,86.25
2018-09-25T06:45:44.471Z,86.54
2018-09-25T06:46:54.308Z,85.77
2018-09-25T06:48:06.579Z,86.25
2018-09-25T06:49:16.647Z,86.39
2018-09-25T06:50:26.722Z,85.77
2018-09-25T06:51:36.764Z,86.3
2018-09-25T06:52:46.817Z,86.01
2018-09-25T06:53:56.613Z,85.91
2018-09-25T06:55:06.754Z,86.3
2018-09-25T06:56:17.174Z,86.1
2018-09-25T06:57:27.251Z,86.1
2018-09-25T06:58:37.335Z,86.01
2018-09-25T06:59:48.195Z,85.91
2018-09-25T07:00:58.378Z,86.3
2018-09-25T07:02:10.909Z,86.1
2018-09-25T07:03:21.213Z,85.91
2018-09-25T07:04:31.276Z,86.3
2018-09-25T07:05:41.407Z,86.1
2018-09-25T07:06:51.474Z,86.1
2018-09-25T07:08:03.311Z,86.1
2018-09-25T07:09:13.376Z,85.91
2018-09-25T07:10:23.802Z,86.34
2018-09-25T07:11:34.999Z,86.43
2018-09-25T07:12:44.565Z,85.86
2018-09-25T07:13:54.627Z,86.43
2018-09-25T07:15:04.156Z,86.05
2018-09-25T07:16:14.223Z,85.86
2018-09-25T07:17:24.411Z,85.77
2018-09-25T07:18:34.335Z,85.77
2018-09-25T07:19:44.412Z,85.86
2018-09-25T07:20:54.466Z,86.43
2018-09-25T07:22:04.521Z,86.34
2018-09-25T07:23:14.959Z,85.77
2018-09-25T07:24:25.092Z,85.96
2018-09-25T07:25:35.238Z,85.77
2018-09-25T07:26:45.308Z,85.96
2018-09-25T07:27:55.382Z,85.81
2018-09-25T07:29:07.750Z,86.19
2018-09-25T07:30:17.809Z,86.19
2018-09-25T07:31:27.989Z,86
2018-09-25T07:32:37.532Z,86.1
2018-09-25T07:33:47.347Z,86.19
2018-09-25T07:34:57.407Z,85.9
2018-09-25T07:36:07.483Z,86.19
2018-09-25T07:37:17.557Z,86
2018-09-25T07:38:27.371Z,85.81
2018-09-25T07:39:37.580Z,86
2018-09-25T07:40:47.382Z,85.9
2018-09-25T07:41:57.453Z,86.1
2018-09-25T07:43:07.525Z,86.04
2018-09-25T07:44:17.075Z,85.57
2018-09-25T07:45:27.396Z,85.85
2018-09-25T07:46:37.194Z,85.66
2018-09-25T07:47:47.267Z,85.57
2018-09-25T07:48:57.338Z,85.38
2018-09-25T07:50:07.151Z,85.18
2018-09-25T07:51:17.223Z,85.38
2018-09-25T07:52:27.393Z,85.57
2018-09-25T07:53:37.464Z,85.51
2018-09-25T07:54:47.301Z,85.51
2018-09-25T07:55:56.838Z,85.22
2018-09-25T07:57:07.953Z,85.32
2018-09-25T07:58:18.077Z,86.04
2018-09-25T07:59:27.625Z,86.04
2018-09-25T08:00:37.727Z,85.85
2018-09-25T08:01:47.822Z,86.04
2018-09-25T08:02:58.029Z,85.75
2018-09-25T08:04:09.746Z,85.57
2018-09-25T08:05:19.547Z,86.14
2018-09-25T08:06:29.604Z,85.94
2018-09-25T08:07:39.672Z,85.51
2018-09-25T08:08:49.843Z,85.61
2018-09-25T08:10:00.356Z,85.41
2018-09-25T08:11:10.651Z,84.84
2018-09-25T08:12:20.725Z,84.79
2018-09-25T08:13:30.789Z,84.12
2018-09-25T08:14:40.857Z,84.41
2018-09-25T08:15:50.995Z,83.97
2018-09-25T08:17:01.087Z,83.68
2018-09-25T08:18:11.277Z,83.87
2018-09-25T08:19:21.412Z,83.59
2018-09-25T08:20:31.244Z,84.35
2018-09-25T08:21:41.421Z,84.55
2018-09-25T08:22:51.568Z,85.12
2018-09-25T08:24:01.643Z,85.21
2018-09-25T08:25:11.710Z,85.36
2018-09-25T08:26:21.776Z,85.46
2018-09-25T08:27:31.870Z,85.84
2018-09-25T08:28:41.668Z,85.65
2018-09-25T08:29:51.972Z,85.75
2018-09-25T08:31:02.099Z,84.83
2018-09-25T08:32:12.031Z,84.35
2018-09-25T08:33:22.103Z,84.16
2018-09-25T08:34:31.924Z,84.26
2018-09-25T08:35:41.722Z,84.45
2018-09-25T08:36:51.811Z,84.35
2018-09-25T08:38:02.007Z,84.26
2018-09-25T08:39:12.362Z,84.64
2018-09-25T08:40:23.028Z,84.78
2018-09-25T08:41:33.131Z,83.63
2018-09-25T08:42:43.229Z,83.82
2018-09-25T08:43:53.302Z,84.58
2018-09-25T08:45:03.361Z,84.49
2018-09-25T08:46:13.437Z,84.97
2018-09-25T08:47:23.505Z,84.92
2018-09-25T08:48:33.325Z,84.88
2018-09-25T08:49:43.412Z,84.68
2018-09-25T08:50:53.475Z,84.78
2018-09-25T08:52:03.547Z,83.82
2018-09-25T08:53:13.660Z,84.15
2018-09-25T08:54:23.805Z,84.05
2018-09-25T08:55:33.925Z,83.67
2018-09-25T08:56:44.010Z,83.81
2018-09-25T08:57:54.094Z,83.23
2018-09-25T08:59:04.163Z,83.14
2018-09-25T09:00:13.975Z,83.23
2018-09-25T09:01:24.138Z,83.14
2018-09-25T09:02:33.964Z,82.98
2018-09-25T09:03:44.024Z,83.47
2018-09-25T09:04:53.821Z,83.65
2018-09-25T09:06:04.850Z,83.08
2018-09-25T09:07:14.933Z,82.98
2018-09-25T09:08:24.952Z,82.7
2018-09-25T09:09:35.059Z,82.74
2018-09-25T09:10:45.126Z,82.54
2018-09-25T09:11:55.196Z,83.22
2018-09-25T09:13:05.300Z,83.65
2018-09-25T09:14:15.378Z,83.8
2018-09-25T09:15:25.463Z,83.41
2018-09-25T09:16:35.536Z,82.84
2018-09-25T09:17:45.651Z,82.97
2018-09-25T09:18:55.723Z,83.41
2018-09-25T09:20:06.895Z,84.23
2018-09-25T09:21:17.493Z,84.71
2018-09-25T09:22:27.566Z,84.42
2018-09-25T09:23:37.470Z,85.05
2018-09-25T09:24:47.540Z,84.95
2018-09-25T09:25:57.360Z,84.95
2018-09-25T09:27:06.900Z,85.05
2018-09-25T09:28:16.990Z,84.48
2018-09-25T09:29:27.060Z,84.52
2018-09-25T09:30:37.148Z,84.52
2018-09-25T09:31:47.227Z,84.14
2018-09-25T09:32:56.787Z,84.33
2018-09-25T09:34:06.587Z,85.34
2018-09-25T09:35:16.383Z,85.92
2018-09-25T09:36:26.496Z,85.34
2018-09-25T09:37:36.032Z,84.48
2018-09-25T09:38:46.199Z,84.52
2018-09-25T09:39:56.275Z,84.81
2018-09-25T09:41:06.121Z,84.14
2018-09-25T09:42:16.516Z,84.04
2018-09-25T09:43:26.409Z,84.23
2018-09-25T09:44:36.216Z,84.18
2018-09-25T09:45:46.291Z,83.89
2018-09-25T09:46:56.355Z,84.04
2018-09-25T09:48:07.071Z,84.81
2018-09-25T09:49:17.143Z,84.52
2018-09-25T09:50:27.307Z,84.52
2018-09-25T09:51:37.918Z,84.61
2018-09-25T09:52:47.990Z,84.91
2018-09-25T09:53:57.812Z,84.33
2018-09-25T09:55:07.983Z,83.98
2018-09-25T09:56:18.130Z,83.51
2018-09-25T09:57:28.153Z,83.16
2018-09-25T09:58:38.220Z,83.16
2018-09-25T09:59:48.172Z,82.82
2018-09-25T10:00:58.254Z,82.57
2018-09-25T10:02:08.334Z,82.86
2018-09-25T10:03:18.412Z,83.44
2018-09-25T10:04:28.476Z,83.69
2018-09-25T10:05:38.560Z,84.26
2018-09-25T10:06:48.905Z,84.12
2018-09-25T10:07:59.203Z,84.22
2018-09-25T10:09:09.269Z,84.99
2018-09-25T10:10:19.362Z,84.08
2018-09-25T10:11:29.432Z,84.12
2018-09-25T10:12:39.356Z,84.8
2018-09-25T10:13:49.532Z,85.24
2018-09-25T10:14:59.614Z,85.77
2018-09-25T10:16:09.705Z,86.4
2018-09-25T10:17:19.806Z,86.97
2018-09-25T10:18:29.874Z,87.7
2018-09-25T10:19:39.674Z,86.79
2018-09-25T10:20:49.483Z,85.88
2018-09-25T10:21:59.571Z,85.01
2018-09-25T10:23:09.637Z,84.58
2018-09-25T10:24:19.729Z,83.94
2018-09-25T10:25:29.919Z,82.93
2018-09-25T10:26:40.001Z,82.59
2018-09-25T10:27:50.080Z,82.82
2018-09-25T10:29:00.342Z,82.53
2018-09-25T10:30:10.151Z,82.24
2018-09-25T10:31:20.233Z,82.82
2018-09-25T10:32:30.427Z,83.01
2018-09-25T10:33:40.250Z,82.92
2018-09-25T10:34:50.464Z,83.3
2018-09-25T10:36:00.552Z,83.36
2018-09-25T10:37:10.344Z,83.59
2018-09-25T10:38:20.419Z,83.36
2018-09-25T10:39:30.583Z,83.2
2018-09-25T10:40:40.664Z,83.4
2018-09-25T10:41:50.756Z,83.49
2018-09-25T10:43:00.923Z,83.97
2018-09-25T10:44:10.800Z,83.78
2018-09-25T10:45:20.888Z,84.12
2018-09-25T10:46:30.964Z,83.93
2018-09-25T10:47:41.036Z,84.41
2018-09-25T10:48:51.147Z,84.12
2018-09-25T10:50:03.113Z,84.03
2018-09-25T10:51:13.415Z,84.75
2018-09-25T10:52:23.497Z,84.56
2018-09-25T10:53:33.578Z,85.04
2018-09-25T10:54:43.406Z,85.19
2018-09-25T10:55:53.411Z,85.28
2018-09-25T10:57:04.470Z,84.42
2018-09-25T10:58:14.577Z,84.18
2018-09-25T10:59:24.660Z,82.78
2018-09-25T11:00:34.848Z,82.63
2018-09-25T11:01:44.948Z,82.57
2018-09-25T11:02:55.309Z,82.57
2018-09-25T11:04:06.002Z,83.25
2018-09-25T11:05:16.092Z,82.82
2018-09-25T11:06:25.906Z,83.2
2018-09-25T11:07:36.053Z,83.93
2018-09-25T11:08:46.132Z,84.31
2018-09-25T11:09:55.962Z,84.95
2018-09-25T11:11:05.916Z,84.95
2018-09-25T11:12:16.043Z,84.56
2018-09-25T11:13:26.128Z,83.98
2018-09-25T11:14:36.226Z,83.16
2018-09-25T11:15:46.337Z,82.63
2018-09-25T11:16:56.449Z,82.57
2018-09-25T11:18:06.310Z,82.71
2018-09-25T11:19:16.458Z,82.81
2018-09-25T11:20:26.542Z,82.57
2018-09-25T11:21:36.708Z,82.96
2018-09-25T11:22:46.788Z,83.59
2018-09-25T11:23:56.907Z,83.97
2018-09-25T11:25:06.983Z,84.51
2018-09-25T11:26:16.549Z,85.08
2018-09-25T11:27:26.626Z,85.14
2018-09-25T11:28:36.844Z,85.77
2018-09-25T11:29:47.012Z,85.58
2018-09-25T11:30:56.909Z,85.77
2018-09-25T11:32:07.003Z,85.28
2018-09-25T11:33:17.088Z,85.28
2018-09-25T11:34:27.184Z,84.95
2018-09-25T11:35:37.286Z,83.8
2018-09-25T11:36:47.410Z,83.84
2018-09-25T11:37:57.544Z,83.93
2018-09-25T11:39:07.650Z,84.03
2018-09-25T11:40:17.459Z,83.16
2018-09-25T11:41:27.727Z,83.16
2018-09-25T11:42:37.973Z,83.74
2018-09-25T11:43:48.059Z,83.84
2018-09-25T11:44:58.251Z,83.93
2018-09-25T11:46:08.333Z,83.84
2018-09-25T11:47:18.675Z,83.54
2018-09-25T11:48:28.731Z,83.26
2018-09-25T11:49:38.829Z,82.92
2018-09-25T11:50:48.758Z,83.06
2018-09-25T11:51:58.854Z,82.57
2018-09-25T11:53:08.942Z,82.76
2018-09-25T11:54:18.765Z,83.06
2018-09-25T11:55:28.872Z,83.25
2018-09-25T11:56:38.726Z,82.96
2018-09-25T11:57:48.272Z,83.06
2018-09-25T11:58:58.347Z,82.42
2018-09-25T12:00:09.120Z,82.71
2018-09-25T12:01:19.344Z,82.52
2018-09-25T12:02:29.835Z,82.9
2018-09-25T12:03:40.922Z,83.19
2018-09-25T12:04:51.916Z,83.29
2018-09-25T12:06:01.749Z,83
2018-09-25T12:07:11.827Z,82.9
2018-09-25T12:08:21.649Z,82.9
2018-09-25T12:09:31.470Z,82.46
2018-09-25T12:10:41.293Z,82.46
2018-09-25T12:11:51.184Z,82.94
2018-09-25T12:13:02.453Z,82.65
2018-09-25T12:14:12.061Z,83.42
2018-09-25T12:15:21.692Z,83.42
2018-09-25T12:16:31.548Z,84.06
2018-09-25T12:17:41.151Z,84.5
2018-09-25T12:18:51.312Z,85.61
2018-09-25T12:20:01.633Z,85.57
2018-09-25T12:21:11.805Z,86.29
2018-09-25T12:22:21.876Z,86.25
2018-09-25T12:23:32.179Z,86.44
2018-09-25T12:24:42.407Z,86.34
2018-09-25T12:25:51.957Z,86.25
2018-09-25T12:27:01.514Z,85.77
2018-09-25T12:28:11.609Z,84.66
2018-09-25T12:29:21.738Z,83.74
2018-09-25T12:30:31.640Z,84.07
2018-09-25T12:31:41.493Z,83.2
2018-09-25T12:32:51.696Z,82.86
2018-09-25T12:34:02.073Z,82.52
2018-09-25T12:35:11.940Z,82.04
2018-09-25T12:36:22.026Z,82.04
2018-09-25T12:37:32.122Z,82.71
2018-09-25T12:38:42.144Z,82.71
2018-09-25T12:39:52.265Z,83.39
2018-09-25T12:41:02.507Z,83
2018-09-25T12:42:12.723Z,83.29
2018-09-25T12:43:22.541Z,82.67
2018-09-25T12:44:32.618Z,82.86
2018-09-25T12:45:42.716Z,83.34
2018-09-25T12:46:52.849Z,83.06
2018-09-25T12:48:04.438Z,83.44
2018-09-25T12:49:14.539Z,83.58
2018-09-25T12:50:24.616Z,83.19
2018-09-25T12:51:34.676Z,83.44
2018-09-25T12:52:44.817Z,83.34
2018-09-25T12:53:54.896Z,83.77
2018-09-25T12:55:04.985Z,84.06
2018-09-25T12:56:15.061Z,83.92
2018-09-25T12:57:25.152Z,83.92
2018-09-25T12:58:35.242Z,84.11
2018-09-25T12:59:45.431Z,84.01
2018-09-25T13:00:55.514Z,83.83
2018-09-25T13:02:06.049Z,83.63
2018-09-25T13:03:16.126Z,82.86
2018-09-25T13:04:26.274Z,83
2018-09-25T13:05:36.372Z,82.85
2018-09-25T13:06:46.450Z,82.65
2018-09-25T13:07:56.647Z,82.5
2018-09-25T13:09:08.582Z,82.79
2018-09-25T13:10:18.651Z,82.7
2018-09-25T13:11:28.731Z,82.7
2018-09-25T13:12:38.810Z,83.18
2018-09-25T13:13:48.889Z,82.98
2018-09-25T13:14:59.003Z,84
2018-09-25T13:16:09.236Z,83.86
2018-09-25T13:17:19.136Z,84.25
2018-09-25T13:18:29.008Z,84.54
2018-09-25T13:19:39.080Z,84.34
2018-09-25T13:20:48.910Z,84.19
2018-09-25T13:21:58.993Z,84.19
2018-09-25T13:23:08.810Z,84.63
2018-09-25T13:24:18.974Z,85.65
2018-09-25T13:25:29.064Z,85.95
2018-09-25T13:26:39.172Z,86.72
2018-09-25T13:27:49.302Z,86.68
2018-09-25T13:28:59.121Z,86.92
2018-09-25T13:30:11.838Z,86.72
2018-09-25T13:31:21.920Z,86.82
2018-09-25T13:32:32.034Z,86.78
2018-09-25T13:33:41.904Z,86.44
2018-09-25T13:34:52.008Z,86.25
2018-09-25T13:36:01.829Z,85.67
2018-09-25T13:37:11.926Z,85.58
2018-09-25T13:38:21.994Z,85.38
2018-09-25T13:39:32.070Z,84.66
2018-09-25T13:40:42.206Z,84.37
2018-09-25T13:41:52.292Z,83.98
2018-09-25T13:43:02.100Z,83.07
2018-09-25T13:44:12.504Z,83.93
2018-09-25T13:45:22.582Z,83.74
2018-09-25T13:46:32.666Z,84.12
2018-09-25T13:47:42.476Z,84.56
2018-09-25T13:48:52.560Z,85.14
2018-09-25T13:50:02.761Z,85.48
2018-09-25T13:51:12.858Z,85.77
2018-09-25T13:52:22.952Z,85.48
2018-09-25T13:53:33.035Z,86.4
2018-09-25T13:54:43.107Z,86.49
2018-09-25T13:55:53.233Z,86.25
2018-09-25T13:57:05.713Z,86.74
2018-09-25T13:58:15.830Z,86.25
2018-09-25T13:59:25.954Z,86.35
2018-09-25T14:00:36.042Z,86.16
2018-09-25T14:01:46.136Z,85.78
2018-09-25T14:02:56.302Z,85.58
2018-09-25T14:04:06.126Z,85.53
2018-09-25T14:05:16.221Z,84.95
2018-09-25T14:06:26.048Z,85.15
2018-09-25T14:07:36.131Z,85.25
2018-09-25T14:08:46.208Z,85.15
2018-09-25T14:09:56.302Z,84.95
2018-09-25T14:11:08.599Z,85.05
2018-09-25T14:12:18.724Z,84.95
2018-09-25T14:13:28.826Z,84.48
2018-09-25T14:14:38.894Z,84.48
2018-09-25T14:15:48.689Z,85.25
2018-09-25T14:16:58.776Z,84.95
2018-09-25T14:18:11.210Z,85.44
2018-09-25T14:19:21.027Z,85.34
2018-09-25T14:20:31.182Z,86.07
2018-09-25T14:21:40.989Z,86.35
2018-09-25T14:22:51.070Z,86.41
2018-09-25T14:24:00.876Z,86.41
2018-09-25T14:25:10.947Z,86.12
2018-09-25T14:26:21.010Z,86.69
2018-09-25T14:27:30.929Z,86.12
2018-09-25T14:28:41.025Z,85.93
2018-09-25T14:29:51.136Z,85.78
2018-09-25T14:31:01.323Z,85.49
2018-09-25T14:32:10.877Z,85.25
2018-09-25T14:33:20.960Z,84.86
2018-09-25T14:34:30.763Z,84.86
2018-09-25T14:35:41.015Z,84.38
2018-09-25T14:36:50.851Z,84.71
2018-09-25T14:38:00.689Z,84.91
2018-09-25T14:39:10.799Z,84.23
2018-09-25T14:40:20.679Z,83.94
2018-09-25T14:41:30.773Z,84.08
2018-09-25T14:42:40.906Z,84.08
2018-09-25T14:43:50.998Z,84.08
2018-09-25T14:45:02.523Z,83.8
2018-09-25T14:46:12.624Z,84.66
2018-09-25T14:47:22.712Z,84.56
2018-09-25T14:48:32.897Z,85.1
2018-09-25T14:49:42.909Z,85
2018-09-25T14:50:52.994Z,84.56
2018-09-25T14:52:02.814Z,84.95
2018-09-25T14:53:12.905Z,84.85
2018-09-25T14:54:23.106Z,84.47
2018-09-25T14:55:33.061Z,85.28
2018-09-25T14:56:43.264Z,84.91
2018-09-25T14:57:53.435Z,85.19
2018-09-25T14:59:03.551Z,85.58
2018-09-25T15:00:13.621Z,85.77
2018-09-25T15:01:22.974Z,85.72
2018-09-25T15:02:33.060Z,85.72
2018-09-25T15:03:42.876Z,85.53
2018-09-25T15:04:52.980Z,85.44
2018-09-25T15:06:03.514Z,85.63
2018-09-25T15:07:13.450Z,85.44
2018-09-25T15:08:23.783Z,85.48
2018-09-25T15:09:33.942Z,85.58
2018-09-25T15:10:44.045Z,85.72
2018-09-25T15:11:54.509Z,85.92
2018-09-25T15:13:04.674Z,85.82
2018-09-25T15:14:14.784Z,85.63
2018-09-25T15:15:24.864Z,85.44
2018-09-25T15:16:34.695Z,85.53
2018-09-25T15:17:44.783Z,85.72
2018-09-25T15:18:54.755Z,85.63
2018-09-25T15:20:04.894Z,85.72
2018-09-25T15:21:15.140Z,85.88
2018-09-25T15:22:25.984Z,86.74
2018-09-25T15:23:35.825Z,86.16
2018-09-25T15:24:45.910Z,86.64
2018-09-25T15:25:55.991Z,86.79
2018-09-25T15:27:06.745Z,87.46
2018-09-25T15:28:16.808Z,86.5
2018-09-25T15:29:26.908Z,86.65
2018-09-25T15:30:37.052Z,87.13
2018-09-25T15:31:47.112Z,87.13
2018-09-25T15:32:57.212Z,86.84
2018-09-25T15:34:07.344Z,87.32
2018-09-25T15:35:17.820Z,86.94
2018-09-25T15:36:28.256Z,86.94
2018-09-25T15:37:38.324Z,87.08
2018-09-25T15:38:48.415Z,86.9
2018-09-25T15:39:58.557Z,86.9